Time;durP1;ratioP1;P1;durP2;ratioP2;P2;SDS_P1;SDS_P2;PMS_P1;PMS_P2;Temp;Humidity;BMP_temperature;BMP_pressure;BME280_temperature;BME280_humidity;BME280_pressure;Samples;Min_cycle;Max_cycle;Signal;HPM_P1;HPM_P2
2023/01/31 00:00:07;;;;;;;;;;;;;;;;;;5067963;28;19919;-88
2023/01/31 00:02:32;;;;;;;;;;;;;;;;;;5067442;28;19913;-88
2023/01/31 00:04:58;;;;;;;;;;;;;;;;;;5063735;28;19916;-86
2023/01/31 00:07:23;;;;;;;;;;;;;;;;;;5068980;28;19916;-87
2023/01/31 00:09:48;;;;;;;;;;;;;;;;;;5067039;28;19943;-86
2023/01/31 00:12:13;;;;;;;;;;;;;;;;;;5070753;28;19916;-90
2023/01/31 00:14:38;;;;;;;;;;;;;;;;;;5064476;28;20406;-86
2023/01/31 00:17:03;;;;;;;;;;;;;;;;;;5069743;28;19913;-88
2023/01/31 00:19:28;;;;;;;;;;;;;;;;;;5061110;28;19912;-86
2023/01/31 00:21:53;;;;;;;;;;;;;;;;;;5068693;28;20376;-87
2023/01/31 00:24:19;;;;;;;;;;;;;;;;;;5069386;28;19912;-87
2023/01/31 00:26:44;;;;;;;;;;;;;;;;;;5062448;28;19945;-88
2023/01/31 00:29:09;;;;;;;;;;;;;;;;;;5050710;28;20019;-88
2023/01/31 00:31:34;;;;;;;;;;;;;;;;;;5043991;28;20283;-88
2023/01/31 00:33:59;;;;;;;;;;;;;;;;;;5043208;28;19943;-87
2023/01/31 00:36:24;;;;;;;;;;;;;;;;;;5053417;28;19913;-87
2023/01/31 00:38:49;;;;;;;;;;;;;;;;;;5046041;28;19960;-86
2023/01/31 00:41:15;;;;;;;;;;;;;;;;;;5051551;28;19909;-87
2023/01/31 00:43:40;;;;;;;;;;;;;;;;;;5043241;28;20391;-87
2023/01/31 00:46:05;;;;;;;;;;;;;;;;;;5039192;28;19952;-87
2023/01/31 00:48:30;;;;;;;;;;;;;;;;;;5046757;28;19949;-87
2023/01/31 00:50:55;;;;;;;;;;;;;;;;;;5066968;28;19913;-87
2023/01/31 00:53:24;;;;;;;;;;;;;;;;;;5068349;28;20386;-84
2023/01/31 00:55:49;;;;;;;;;;;;;;;;;;5045472;28;19919;-88
2023/01/31 00:58:14;;;;;;;;;;;;;;;;;;5051541;28;19908;-88
2023/01/31 01:00:39;;;;;;;;;;;;;;;;;;5068494;28;19913;-88
2023/01/31 01:03:05;;;;;;;;;;;;;;;;;;5060744;28;19920;-87
2023/01/31 01:05:30;;;;;;;;;;;;;;;;;;5069981;28;20011;-86
2023/01/31 01:07:55;;;;;;;;;;;;;;;;;;5045088;28;19921;-86
2023/01/31 01:10:20;;;;;;;;;;;;;;;;;;5042987;28;20404;-87
2023/01/31 01:12:45;;;;;;;;;;;;;;;;;;5047521;28;19912;-87
2023/01/31 01:15:10;;;;;;;;;;;;;;;;;;5068716;28;19909;-84
2023/01/31 01:17:36;;;;;;;;;;;;;;;;;;5043865;28;19960;-87
2023/01/31 01:20:02;;;;;;;;;;;;;;;;;;5066375;28;19908;-85
2023/01/31 01:22:28;;;;;;;;;;;;;;;;;;5048580;28;19913;-86
2023/01/31 01:24:53;;;;;;;;;;;;;;;;;;5062559;28;19916;-86
2023/01/31 01:27:18;;;;;;;;;;;;;;;;;;5062721;28;19916;-88
2023/01/31 01:29:43;;;;;;;;;;;;;;;;;;5053388;28;19913;-88
2023/01/31 01:32:08;;;;;;;;;;;;;;;;;;5069214;28;19924;-88
2023/01/31 01:34:33;;;;;;;;;;;;;;;;;;5063477;28;19936;-88
2023/01/31 01:36:59;;;;;;;;;;;;;;;;;;5057035;28;19916;-85
2023/01/31 01:39:24;;;;;;;;;;;;;;;;;;5068460;28;19928;-87
2023/01/31 01:41:50;;;;;;;;;;;;;;;;;;5055294;28;19920;-86
2023/01/31 01:44:15;;;;;;;;;;;;;;;;;;5088003;28;19938;-88
2023/01/31 01:46:40;;;;;;;;;;;;;;;;;;5071756;28;19913;-86
2023/01/31 01:49:05;;;;;;;;;;;;;;;;;;5075384;28;19912;-87
2023/01/31 01:51:30;;;;;;;;;;;;;;;;;;5063794;28;19976;-87
2023/01/31 01:53:55;;;;;;;;;;;;;;;;;;5061694;28;19912;-88
2023/01/31 01:56:21;;;;;;;;;;;;;;;;;;5068014;28;19909;-87
2023/01/31 01:58:46;;;;;;;;;;;;;;;;;;5058416;28;19919;-88
2023/01/31 02:01:12;;;;;;;;;;;;;;;;;;5061150;28;20264;-88
2023/01/31 02:03:37;;;;;;;;;;;;;;;;;;5069523;28;19912;-88
2023/01/31 02:06:02;;;;;;;;;;;;;;;;;;5072656;28;20394;-87
2023/01/31 02:08:27;;;;;;;;;;;;;;;;;;5055910;28;19923;-87
2023/01/31 02:10:53;;;;;;;;;;;;;;;;;;5059542;28;20430;-89
2023/01/31 02:13:18;;;;;;;;;;;;;;;;;;5062144;28;19939;-87
2023/01/31 02:15:43;;;;;;;;;;;;;;;;;;5048667;28;19912;-87
2023/01/31 02:18:08;;;;;;;;;;;;;;;;;;5064957;28;20010;-87
2023/01/31 02:20:33;;;;;;;;;;;;;;;;;;5058571;28;19921;-89
2023/01/31 02:22:58;;;;;;;;;;;;;;;;;;5080367;28;19912;-88
2023/01/31 02:25:24;;;;;;;;;;;;;;;;;;5065745;28;19966;-87
2023/01/31 02:27:49;;;;;;;;;;;;;;;;;;5071345;28;19930;-84
2023/01/31 02:30:14;;;;;;;;;;;;;;;;;;5047322;28;19967;-86
2023/01/31 02:32:39;;;;;;;;;;;;;;;;;;5072522;28;20069;-87
2023/01/31 02:35:04;;;;;;;;;;;;;;;;;;5054477;28;19920;-88
2023/01/31 02:37:29;;;;;;;;;;;;;;;;;;5068549;28;20384;-83
2023/01/31 02:39:54;;;;;;;;;;;;;;;;;;5041930;28;19998;-84
2023/01/31 02:42:20;;;;;;;;;;;;;;;;;;5055689;28;19916;-86
2023/01/31 02:45:00;;;;;;;;;;;;;;;;;;5042946;28;20008;-86
2023/01/31 02:47:25;;;;;;;;;;;;;;;;;;5046650;28;19919;-86
2023/01/31 02:49:51;;;;;;;;;;;;;;;;;;5068784;28;19916;-86
2023/01/31 02:52:16;;;;;;;;;;;;;;;;;;5070955;28;20427;-87
2023/01/31 02:57:25;;;;;;;;;;;;;;;;;;5068562;28;20072;-87
2023/01/31 02:59:50;;;;;;;;;;;;;;;;;;5047420;28;20043;-86
2023/01/31 03:02:15;;;;;;;;;;;;;;;;;;5069966;28;19913;-87
2023/01/31 03:04:41;;;;;;;;;;;;;;;;;;5066797;28;20273;-86
2023/01/31 03:07:07;;;;;;;;;;;;;;;;;;5051665;28;19912;-86
2023/01/31 03:09:35;;;;;;;;;;;;;;;;;;5064898;28;20078;-88
2023/01/31 03:12:00;;;;;;;;;;;;;;;;;;5068497;28;20035;-87
2023/01/31 03:14:26;;;;;;;;;;;;;;;;;;5055894;28;20003;-88
2023/01/31 03:19:34;;;;;;;;;;;;;;;;;;5069840;28;19919;-87
2023/01/31 03:22:00;;;;;;;;;;;;;;;;;;5051667;28;19916;-86
2023/01/31 03:24:25;;;;;;;;;;;;;;;;;;5045976;28;19938;-88
2023/01/31 03:26:50;;;;;;;;;;;;;;;;;;5061944;28;19924;-87
2023/01/31 03:29:15;;;;;;;;;;;;;;;;;;5075847;28;20267;-85
2023/01/31 03:31:41;;;;;;;;;;;;;;;;;;5059390;28;19921;-87
2023/01/31 03:34:06;;;;;;;;;;;;;;;;;;5067346;28;20360;-87
2023/01/31 03:36:31;;;;;;;;;;;;;;;;;;5070647;28;19958;-88
2023/01/31 03:38:56;;;;;;;;;;;;;;;;;;5057074;28;19912;-88
2023/01/31 03:41:21;;;;;;;;;;;;;;;;;;5066914;28;20261;-88
2023/01/31 03:43:46;;;;;;;;;;;;;;;;;;5061546;28;20257;-87
2023/01/31 03:46:11;;;;;;;;;;;;;;;;;;5063428;28;19944;-87
2023/01/31 03:48:37;;;;;;;;;;;;;;;;;;5069959;28;19913;-88
2023/01/31 03:51:02;;;;;;;;;;;;;;;;;;5061920;28;19924;-88
2023/01/31 03:53:27;;;;;;;;;;;;;;;;;;5061953;28;19913;-88
2023/01/31 03:55:52;;;;;;;;;;;;;;;;;;5068609;28;19919;-87
2023/01/31 03:58:18;;;;;;;;;;;;;;;;;;5068347;28;19912;-88
2023/01/31 04:00:43;;;;;;;;;;;;;;;;;;5054401;28;20348;-85
2023/01/31 04:03:08;;;;;;;;;;;;;;;;;;5071145;28;19918;-88
2023/01/31 04:05:34;;;;;;;;;;;;;;;;;;5060518;28;19944;-87
2023/01/31 04:07:59;;;;;;;;;;;;;;;;;;5057843;28;19913;-88
2023/01/31 04:10:25;;;;;;;;;;;;;;;;;;5067605;28;19947;-87
2023/01/31 04:12:50;;;;;;;;;;;;;;;;;;5061956;28;19916;-87
2023/01/31 04:15:15;;;;;;;;;;;;;;;;;;5067900;28;19967;-87
2023/01/31 04:17:40;;;;;;;;;;;;;;;;;;5068248;28;19947;-87
2023/01/31 04:20:05;;;;;;;;;;;;;;;;;;5064037;28;19913;-87
2023/01/31 04:22:30;;;;;;;;;;;;;;;;;;5066533;28;19952;-88
2023/01/31 04:24:56;;;;;;;;;;;;;;;;;;5067738;28;20374;-88
2023/01/31 04:27:21;;;;;;;;;;;;;;;;;;5043792;28;20372;-88
2023/01/31 04:29:46;;;;;;;;;;;;;;;;;;5074914;28;20110;-88
2023/01/31 04:32:11;;;;;;;;;;;;;;;;;;5046337;28;20053;-88
2023/01/31 04:34:36;;;;;;;;;;;;;;;;;;5074256;28;19912;-87
2023/01/31 04:37:01;;;;;;;;;;;;;;;;;;5065609;28;19924;-85
2023/01/31 04:39:26;;;;;;;;;;;;;;;;;;5066635;28;19912;-87
2023/01/31 04:41:52;;;;;;;;;;;;;;;;;;5072260;28;20367;-85
2023/01/31 04:44:17;;;;;;;;;;;;;;;;;;5063673;28;20426;-87
2023/01/31 04:46:42;;;;;;;;;;;;;;;;;;5063332;28;19921;-85
2023/01/31 04:49:07;;;;;;;;;;;;;;;;;;5046542;28;19912;-86
2023/01/31 04:51:32;;;;;;;;;;;;;;;;;;5043853;28;19921;-87
2023/01/31 04:53:57;;;;;;;;;;;;;;;;;;5077566;28;19920;-88
2023/01/31 04:56:23;;;;;;;;;;;;;;;;;;5054898;28;19920;-87
2023/01/31 04:58:48;;;;;;;;;;;;;;;;;;5057267;28;19919;-88
2023/01/31 05:01:13;;;;;;;;;;;;;;;;;;5062930;28;19912;-87
2023/01/31 05:03:38;;;;;;;;;;;;;;;;;;5075648;28;19913;-88
2023/01/31 05:06:03;;;;;;;;;;;;;;;;;;5073368;28;19913;-88
2023/01/31 05:08:28;;;;;;;;;;;;;;;;;;5087898;28;19921;-87
2023/01/31 05:10:53;;;;;;;;;;;;;;;;;;5064804;28;19917;-88
2023/01/31 05:13:19;;;;;;;;;;;;;;;;;;5046892;28;19913;-87
2023/01/31 05:15:44;;;;;;;;;;;;;;;;;;5058887;28;19999;-88
2023/01/31 05:18:09;;;;;;;;;;;;;;;;;;5062043;28;20387;-88
2023/01/31 05:20:35;;;;;;;;;;;;;;;;;;5076933;28;19919;-88
2023/01/31 05:23:00;;;;;;;;;;;;;;;;;;5051576;28;19924;-88
2023/01/31 05:25:25;;;;;;;;;;;;;;;;;;5068324;28;20323;-88
2023/01/31 05:27:50;;;;;;;;;;;;;;;;;;5066972;28;19920;-88
2023/01/31 05:30:16;;;;;;;;;;;;;;;;;;5066321;28;19955;-88
2023/01/31 05:32:41;;;;;;;;;;;;;;;;;;5068058;28;20334;-88
2023/01/31 05:35:06;;;;;;;;;;;;;;;;;;5070141;28;19919;-89
2023/01/31 05:37:31;;;;;;;;;;;;;;;;;;5085585;28;19920;-84
2023/01/31 05:39:56;;;;;;;;;;;;;;;;;;5084847;28;19938;-90
2023/01/31 05:42:21;;;;;;;;;;;;;;;;;;5075615;28;19999;-85
2023/01/31 05:44:47;;;;;;;;;;;;;;;;;;5076497;28;19912;-88
2023/01/31 05:47:12;;;;;;;;;;;;;;;;;;5092171;28;20367;-87
2023/01/31 05:49:37;;;;;;;;;;;;;;;;;;5068172;28;19978;-87
2023/01/31 05:52:02;;;;;;;;;;;;;;;;;;5066807;28;19916;-86
2023/01/31 05:54:27;;;;;;;;;;;;;;;;;;5062069;28;19919;-88
2023/01/31 05:56:52;;;;;;;;;;;;;;;;;;5068822;28;19980;-88
2023/01/31 05:59:18;;;;;;;;;;;;;;;;;;5066823;28;19916;-87
2023/01/31 06:01:43;;;;;;;;;;;;;;;;;;5069507;28;19927;-83
2023/01/31 06:04:08;;;;;;;;;;;;;;;;;;5088515;28;19919;-93
2023/01/31 06:06:33;;;;;;;;;;;;;;;;;;5067200;28;19919;-83
2023/01/31 06:08:58;;;;;;;;;;;;;;;;;;5060715;28;19939;-85
2023/01/31 06:11:24;;;;;;;;;;;;;;;;;;5069915;28;20425;-88
2023/01/31 06:13:49;;;;;;;;;;;;;;;;;;5065892;28;19927;-87
2023/01/31 06:16:14;;;;;;;;;;;;;;;;;;5066643;28;19919;-85
2023/01/31 06:18:39;;;;;;;;;;;;;;;;;;5086968;28;19993;-86
2023/01/31 06:21:04;;;;;;;;;;;;;;;;;;5066959;28;20333;-85
2023/01/31 06:23:29;;;;;;;;;;;;;;;;;;5064180;28;19922;-83
2023/01/31 06:25:55;;;;;;;;;;;;;;;;;;5063570;28;20015;-87
2023/01/31 06:28:20;;;;;;;;;;;;;;;;;;5069457;28;20056;-86
2023/01/31 06:30:45;;;;;;;;;;;;;;;;;;5084220;28;19916;-85
2023/01/31 06:33:11;;;;;;;;;;;;;;;;;;5086813;28;19916;-86
2023/01/31 06:35:36;;;;;;;;;;;;;;;;;;5074205;28;19912;-86
2023/01/31 06:38:01;;;;;;;;;;;;;;;;;;5086332;28;19927;-85
2023/01/31 06:40:27;;;;;;;;;;;;;;;;;;5068518;28;19920;-86
2023/01/31 06:42:52;;;;;;;;;;;;;;;;;;5059528;28;20352;-86
2023/01/31 06:45:17;;;;;;;;;;;;;;;;;;5090494;28;19913;-86
2023/01/31 06:47:42;;;;;;;;;;;;;;;;;;5088960;28;19916;-85
2023/01/31 06:50:07;;;;;;;;;;;;;;;;;;5064600;28;19991;-88
2023/01/31 06:52:32;;;;;;;;;;;;;;;;;;5074949;28;19981;-86
2023/01/31 06:54:57;;;;;;;;;;;;;;;;;;5090011;28;19920;-84
2023/01/31 06:57:23;;;;;;;;;;;;;;;;;;5091977;28;19935;-84
2023/01/31 06:59:48;;;;;;;;;;;;;;;;;;5063240;28;20332;-86
2023/01/31 07:02:13;;;;;;;;;;;;;;;;;;5090488;28;20276;-86
2023/01/31 07:04:41;;;;;;;;;;;;;;;;;;5071788;28;19916;-85
2023/01/31 07:07:06;;;;;;;;;;;;;;;;;;5091404;28;19938;-85
2023/01/31 07:09:31;;;;;;;;;;;;;;;;;;5063392;28;19920;-87
2023/01/31 07:11:56;;;;;;;;;;;;;;;;;;5090322;28;20081;-87
2023/01/31 07:14:21;;;;;;;;;;;;;;;;;;5092168;28;19916;-87
2023/01/31 07:16:46;;;;;;;;;;;;;;;;;;5071806;28;19916;-87
2023/01/31 07:19:11;;;;;;;;;;;;;;;;;;5090587;28;20686;-84
2023/01/31 07:21:37;;;;;;;;;;;;;;;;;;5070150;28;19912;-84
2023/01/31 07:24:02;;;;;;;;;;;;;;;;;;5066418;28;20003;-84
2023/01/31 07:26:27;;;;;;;;;;;;;;;;;;5070889;28;19939;-85
2023/01/31 07:28:52;;;;;;;;;;;;;;;;;;5069301;28;19917;-85
2023/01/31 07:31:17;;;;;;;;;;;;;;;;;;5061141;28;19920;-84
2023/01/31 07:33:42;;;;;;;;;;;;;;;;;;5073148;28;19912;-84
2023/01/31 07:36:07;;;;;;;;;;;;;;;;;;5091768;28;19916;-85
2023/01/31 07:38:33;;;;;;;;;;;;;;;;;;5067344;28;19912;-82
2023/01/31 07:40:58;;;;;;;;;;;;;;;;;;5071048;28;19927;-84
2023/01/31 07:43:23;;;;;;;;;;;;;;;;;;5062429;28;19912;-84
2023/01/31 07:45:48;;;;;;;;;;;;;;;;;;5083180;28;20352;-85
2023/01/31 07:48:13;;;;;;;;;;;;;;;;;;5071657;28;19923;-84
2023/01/31 07:50:39;;;;;;;;;;;;;;;;;;5065561;28;19912;-84
2023/01/31 07:53:04;;;;;;;;;;;;;;;;;;5064020;28;19920;-84
2023/01/31 07:55:29;;;;;;;;;;;;;;;;;;5070093;28;19966;-84
2023/01/31 07:57:54;;;;;;;;;;;;;;;;;;5074378;28;20400;-84
2023/01/31 08:05:47;;;;;;;;;;;;;;;;;;5084968;28;19970;-85
2023/01/31 08:08:12;;;;;;;;;;;;;;;;;;5065762;28;20339;-83
2023/01/31 08:10:37;;;;;;;;;;;;;;;;;;5084027;28;20379;-84
2023/01/31 08:13:03;;;;;;;;;;;;;;;;;;5069451;28;20424;-84
2023/01/31 08:15:28;;;;;;;;;;;;;;;;;;5069943;28;20437;-85
2023/01/31 08:17:53;;;;;;;;;;;;;;;;;;5087674;28;20364;-84
2023/01/31 08:20:18;;;;;;;;;;;;;;;;;;5071822;28;19919;-86
2023/01/31 08:22:43;;;;;;;;;;;;;;;;;;5072093;28;19913;-84
2023/01/31 08:25:09;;;;;;;;;;;;;;;;;;5069611;28;19938;-83
2023/01/31 08:27:35;;;;;;;;;;;;;;;;;;5086379;28;19924;-84
2023/01/31 08:30:00;;;;;;;;;;;;;;;;;;5070586;28;19916;-83
2023/01/31 08:32:25;;;;;;;;;;;;;;;;;;5071958;28;20352;-83
2023/01/31 08:34:50;;;;;;;;;;;;;;;;;;5065482;28;19933;-84
2023/01/31 08:37:15;;;;;;;;;;;;;;;;;;5069207;28;19916;-83
2023/01/31 08:39:42;;;;;;;;;;;;;;;;;;5062823;28;19927;-85
2023/01/31 08:42:07;;;;;;;;;;;;;;;;;;5072406;28;19912;-84
2023/01/31 08:44:32;;;;;;;;;;;;;;;;;;5071378;28;19920;-83
2023/01/31 08:47:00;;;;;;;;;;;;;;;;;;5080690;28;20015;-85
2023/01/31 08:49:25;;;;;;;;;;;;;;;;;;5064285;28;20290;-84
2023/01/31 08:51:50;;;;;;;;;;;;;;;;;;5061772;28;19924;-84
2023/01/31 08:54:15;;;;;;;;;;;;;;;;;;5062172;28;20011;-84
2023/01/31 08:56:41;;;;;;;;;;;;;;;;;;5065092;28;19916;-84
2023/01/31 08:59:06;;;;;;;;;;;;;;;;;;5072833;28;19920;-84
2023/01/31 09:01:31;;;;;;;;;;;;;;;;;;5087036;28;19920;-83
2023/01/31 09:03:57;;;;;;;;;;;;;;;;;;5091135;28;20014;-83
2023/01/31 09:06:22;;;;;;;;;;;;;;;;;;5085095;28;20391;-83
2023/01/31 09:08:47;;;;;;;;;;;;;;;;;;5082997;28;19939;-83
2023/01/31 09:11:17;;;;;;;;;;;;;;;;;;5069005;28;20379;-83
2023/01/31 09:13:42;;;;;;;;;;;;;;;;;;5071263;28;19912;-84
2023/01/31 09:16:08;;;;;;;;;;;;;;;;;;5070468;28;19953;-85
2023/01/31 09:18:33;;;;;;;;;;;;;;;;;;5057192;28;19923;-85
2023/01/31 09:20:58;;;;;;;;;;;;;;;;;;5070466;28;19931;-84
2023/01/31 09:23:23;;;;;;;;;;;;;;;;;;5071712;28;19919;-84
2023/01/31 09:25:48;;;;;;;;;;;;;;;;;;5069870;28;19912;-84
2023/01/31 09:28:13;;;;;;;;;;;;;;;;;;5075175;28;19919;-84
2023/01/31 09:30:38;;;;;;;;;;;;;;;;;;5065577;28;19912;-85
2023/01/31 09:33:04;;;;;;;;;;;;;;;;;;5068924;28;19913;-85
2023/01/31 09:35:30;;;;;;;;;;;;;;;;;;5062060;28;19915;-86
2023/01/31 09:37:55;;;;;;;;;;;;;;;;;;5063156;28;19912;-84
2023/01/31 09:40:22;;;;;;;;;;;;;;;;;;5080356;28;19997;-85
2023/01/31 09:42:47;;;;;;;;;;;;;;;;;;5064528;28;19912;-85
2023/01/31 09:45:12;;;;;;;;;;;;;;;;;;5091170;28;20374;-85
2023/01/31 09:47:37;;;;;;;;;;;;;;;;;;5092563;28;20287;-86
2023/01/31 09:50:04;;;;;;;;;;;;;;;;;;5077337;28;20371;-85
2023/01/31 09:52:31;;;;;;;;;;;;;;;;;;5095713;28;20429;-88
2023/01/31 09:54:56;;;;;;;;;;;;;;;;;;5076015;28;19935;-88
2023/01/31 09:57:21;;;;;;;;;;;;;;;;;;5071734;28;20360;-88
2023/01/31 09:59:46;;;;;;;;;;;;;;;;;;5071400;28;19908;-84
2023/01/31 10:02:11;;;;;;;;;;;;;;;;;;5089082;28;20003;-85
2023/01/31 10:04:36;;;;;;;;;;;;;;;;;;5093727;28;20279;-88
2023/01/31 10:07:02;;;;;;;;;;;;;;;;;;5062272;28;20273;-85
2023/01/31 10:09:27;;;;;;;;;;;;;;;;;;5065075;28;20330;-86
2023/01/31 10:11:52;;;;;;;;;;;;;;;;;;5086775;28;20363;-85
2023/01/31 10:14:17;;;;;;;;;;;;;;;;;;5084834;28;19912;-86
2023/01/31 10:16:44;;;;;;;;;;;;;;;;;;5090798;28;20390;-86
2023/01/31 10:19:09;;;;;;;;;;;;;;;;;;5093226;28;19963;-87
2023/01/31 10:21:34;;;;;;;;;;;;;;;;;;5073867;28;19955;-87
2023/01/31 10:24:00;;;;;;;;;;;;;;;;;;5067776;28;19978;-87
2023/01/31 10:26:25;;;;;;;;;;;;;;;;;;5063420;28;19959;-87
2023/01/31 10:28:50;;;;;;;;;;;;;;;;;;5069949;28;19912;-87
2023/01/31 10:31:15;;;;;;;;;;;;;;;;;;5052684;28;19924;-87
2023/01/31 10:33:40;;;;;;;;;;;;;;;;;;5073727;28;19916;-87
2023/01/31 10:36:05;;;;;;;;;;;;;;;;;;5051703;28;20053;-85
2023/01/31 10:38:30;;;;;;;;;;;;;;;;;;5065542;28;20042;-83
2023/01/31 10:40:56;;;;;;;;;;;;;;;;;;5048363;28;19912;-84
2023/01/31 10:43:21;;;;;;;;;;;;;;;;;;5054475;28;19955;-83
2023/01/31 10:45:46;;;;;;;;;;;;;;;;;;5057258;28;20369;-83
2023/01/31 10:48:11;;;;;;;;;;;;;;;;;;5051329;28;19916;-83
2023/01/31 10:50:36;;;;;;;;;;;;;;;;;;5052033;28;19983;-84
2023/01/31 10:53:01;;;;;;;;;;;;;;;;;;5051246;28;19917;-81
2023/01/31 10:55:27;;;;;;;;;;;;;;;;;;5052718;28;19980;-84
2023/01/31 10:57:52;;;;;;;;;;;;;;;;;;5059630;28;19916;-83
2023/01/31 11:00:17;;;;;;;;;;;;;;;;;;5072609;28;20011;-84
2023/01/31 11:02:42;;;;;;;;;;;;;;;;;;5052380;28;19912;-82
2023/01/31 11:05:07;;;;;;;;;;;;;;;;;;5040063;28;19913;-84
2023/01/31 11:07:32;;;;;;;;;;;;;;;;;;5071958;28;20418;-83
2023/01/31 11:09:57;;;;;;;;;;;;;;;;;;5069559;28;19912;-85
2023/01/31 11:12:23;;;;;;;;;;;;;;;;;;5050990;28;19920;-86
2023/01/31 11:14:48;;;;;;;;;;;;;;;;;;5071767;28;20438;-84
2023/01/31 11:17:13;;;;;;;;;;;;;;;;;;5046890;28;19912;-85
2023/01/31 11:19:39;;;;;;;;;;;;;;;;;;5050795;28;19930;-82
2023/01/31 11:22:04;;;;;;;;;;;;;;;;;;5051949;28;19955;-84
2023/01/31 11:24:29;;;;;;;;;;;;;;;;;;5051999;28;19944;-84
2023/01/31 11:26:55;;;;;;;;;;;;;;;;;;5069931;28;20284;-84
2023/01/31 11:29:21;;;;;;;;;;;;;;;;;;5071905;28;19959;-84
2023/01/31 11:31:46;;;;;;;;;;;;;;;;;;5044544;28;20004;-84
2023/01/31 11:34:11;;;;;;;;;;;;;;;;;;5067480;28;20019;-83
2023/01/31 11:36:36;;;;;;;;;;;;;;;;;;5070237;28;19970;-84
2023/01/31 11:39:02;;;;;;;;;;;;;;;;;;5047420;28;19962;-84
2023/01/31 11:41:27;;;;;;;;;;;;;;;;;;5043725;28;19913;-86
2023/01/31 11:43:54;;;;;;;;;;;;;;;;;;5052186;28;19908;-84
2023/01/31 11:46:19;;;;;;;;;;;;;;;;;;5069852;28;19944;-84
2023/01/31 11:48:44;;;;;;;;;;;;;;;;;;5040022;28;19959;-84
2023/01/31 11:51:09;;;;;;;;;;;;;;;;;;5050233;28;19923;-85
2023/01/31 11:53:34;;;;;;;;;;;;;;;;;;5051508;28;19939;-84
2023/01/31 11:55:59;;;;;;;;;;;;;;;;;;5068014;28;19915;-85
2023/01/31 11:58:24;;;;;;;;;;;;;;;;;;5063572;28;20015;-84
2023/01/31 12:00:50;;;;;;;;;;;;;;;;;;5068377;28;20280;-85
2023/01/31 12:03:15;;;;;;;;;;;;;;;;;;5043045;28;19958;-85
2023/01/31 12:05:40;;;;;;;;;;;;;;;;;;5058580;28;19915;-85
2023/01/31 12:08:05;;;;;;;;;;;;;;;;;;5040179;28;19919;-84
2023/01/31 12:10:30;;;;;;;;;;;;;;;;;;5051025;28;19962;-85
2023/01/31 12:12:55;;;;;;;;;;;;;;;;;;5047135;28;19966;-85
2023/01/31 12:15:21;;;;;;;;;;;;;;;;;;5065836;28;19920;-86
2023/01/31 12:17:46;;;;;;;;;;;;;;;;;;5051703;28;19912;-86
2023/01/31 12:20:11;;;;;;;;;;;;;;;;;;5050586;28;19962;-85
2023/01/31 12:22:36;;;;;;;;;;;;;;;;;;5041916;28;19965;-86
2023/01/31 12:25:01;;;;;;;;;;;;;;;;;;5051237;28;20395;-87
2023/01/31 12:27:27;;;;;;;;;;;;;;;;;;5063877;28;20438;-85
2023/01/31 12:29:52;;;;;;;;;;;;;;;;;;5059513;28;19913;-86
2023/01/31 12:32:17;;;;;;;;;;;;;;;;;;5055739;28;19947;-85
2023/01/31 12:34:43;;;;;;;;;;;;;;;;;;5068387;28;19920;-86
2023/01/31 12:37:08;;;;;;;;;;;;;;;;;;5067169;28;19913;-86
2023/01/31 12:39:33;;;;;;;;;;;;;;;;;;5056879;28;19967;-87
2023/01/31 12:41:58;;;;;;;;;;;;;;;;;;5059586;28;19916;-86
2023/01/31 12:44:23;;;;;;;;;;;;;;;;;;5067150;28;20137;-86
2023/01/31 12:46:48;;;;;;;;;;;;;;;;;;5064321;28;20502;-86
2023/01/31 12:49:13;;;;;;;;;;;;;;;;;;5070645;28;19912;-83
2023/01/31 12:51:39;;;;;;;;;;;;;;;;;;5070232;28;20326;-86
2023/01/31 12:54:04;;;;;;;;;;;;;;;;;;5061004;28;19917;-84
2023/01/31 12:56:29;;;;;;;;;;;;;;;;;;5063503;28;19960;-86
2023/01/31 12:58:54;;;;;;;;;;;;;;;;;;5064641;28;19916;-86
2023/01/31 13:01:19;;;;;;;;;;;;;;;;;;5063213;28;19917;-86
2023/01/31 13:03:44;;;;;;;;;;;;;;;;;;5068802;28;19916;-86
2023/01/31 13:06:14;;;;;;;;;;;;;;;;;;5060698;28;20353;-87
2023/01/31 13:08:39;;;;;;;;;;;;;;;;;;5057646;28;19968;-85
2023/01/31 13:11:04;;;;;;;;;;;;;;;;;;5057236;28;19960;-84
2023/01/31 13:13:29;;;;;;;;;;;;;;;;;;5059945;28;20297;-86
2023/01/31 13:15:54;;;;;;;;;;;;;;;;;;5064176;28;20402;-86
2023/01/31 13:18:20;;;;;;;;;;;;;;;;;;5075891;28;20357;-85
2023/01/31 13:20:45;;;;;;;;;;;;;;;;;;5068293;28;19916;-85
2023/01/31 13:23:10;;;;;;;;;;;;;;;;;;5074137;28;20003;-85
2023/01/31 13:25:35;;;;;;;;;;;;;;;;;;5072698;28;20460;-83
2023/01/31 13:28:00;;;;;;;;;;;;;;;;;;5071323;28;20009;-84
2023/01/31 13:30:25;;;;;;;;;;;;;;;;;;5092104;28;19912;-86
2023/01/31 13:32:50;;;;;;;;;;;;;;;;;;5094303;28;19924;-86
2023/01/31 13:35:15;;;;;;;;;;;;;;;;;;5072096;28;19943;-85
2023/01/31 13:37:41;;;;;;;;;;;;;;;;;;5088451;28;19927;-86
2023/01/31 13:40:06;;;;;;;;;;;;;;;;;;5071894;28;20020;-85
2023/01/31 13:42:32;;;;;;;;;;;;;;;;;;5071716;28;19924;-85
2023/01/31 13:44:57;;;;;;;;;;;;;;;;;;5074278;28;20325;-84
2023/01/31 13:47:22;;;;;;;;;;;;;;;;;;5092805;28;19912;-87
2023/01/31 13:49:47;;;;;;;;;;;;;;;;;;5060366;28;20284;-87
2023/01/31 13:52:12;;;;;;;;;;;;;;;;;;5091272;28;19939;-81
2023/01/31 13:54:38;;;;;;;;;;;;;;;;;;5071809;28;19966;-81
2023/01/31 13:57:03;;;;;;;;;;;;;;;;;;5065542;28;19909;-80
2023/01/31 13:59:28;;;;;;;;;;;;;;;;;;5086500;28;19923;-81
2023/01/31 14:01:53;;;;;;;;;;;;;;;;;;5071188;28;19912;-81
2023/01/31 14:04:20;;;;;;;;;;;;;;;;;;5076574;28;19908;-81
2023/01/31 14:06:45;;;;;;;;;;;;;;;;;;5064443;28;19912;-81
2023/01/31 14:09:10;;;;;;;;;;;;;;;;;;5060450;28;20437;-81
2023/01/31 14:11:35;;;;;;;;;;;;;;;;;;5070882;28;20372;-81
2023/01/31 14:14:01;;;;;;;;;;;;;;;;;;5092662;28;19917;-81
2023/01/31 14:16:26;;;;;;;;;;;;;;;;;;5092257;28;19920;-81
2023/01/31 14:18:51;;;;;;;;;;;;;;;;;;5092281;28;19935;-82
2023/01/31 14:21:16;;;;;;;;;;;;;;;;;;5093547;28;19919;-81
2023/01/31 14:23:41;;;;;;;;;;;;;;;;;;5094120;28;19921;-83
2023/01/31 14:26:06;;;;;;;;;;;;;;;;;;5074460;28;20277;-82
2023/01/31 14:28:31;;;;;;;;;;;;;;;;;;5075395;28;20394;-80
2023/01/31 14:30:57;;;;;;;;;;;;;;;;;;5091906;28;20364;-82
2023/01/31 14:33:22;;;;;;;;;;;;;;;;;;5076843;28;19961;-87
2023/01/31 14:35:47;;;;;;;;;;;;;;;;;;5074706;28;19920;-80
2023/01/31 14:38:12;;;;;;;;;;;;;;;;;;5071578;28;19943;-82
2023/01/31 14:40:37;;;;;;;;;;;;;;;;;;5073350;28;19913;-86
2023/01/31 14:43:02;;;;;;;;;;;;;;;;;;5072056;28;19917;-85
2023/01/31 14:45:27;;;;;;;;;;;;;;;;;;5083118;28;19958;-81
2023/01/31 14:47:52;;;;;;;;;;;;;;;;;;5074013;28;20372;-82
2023/01/31 14:50:18;;;;;;;;;;;;;;;;;;5072259;28;20296;-81
2023/01/31 14:52:43;;;;;;;;;;;;;;;;;;5081604;28;19917;-82
2023/01/31 14:55:08;;;;;;;;;;;;;;;;;;5085649;28;19916;-80
2023/01/31 14:57:33;;;;;;;;;;;;;;;;;;5073188;28;19912;-80
2023/01/31 14:59:58;;;;;;;;;;;;;;;;;;5088174;28;19912;-80
2023/01/31 15:02:23;;;;;;;;;;;;;;;;;;5081770;28;20070;-80
2023/01/31 15:04:48;;;;;;;;;;;;;;;;;;5072940;28;20268;-80
2023/01/31 15:07:14;;;;;;;;;;;;;;;;;;5073939;28;20022;-81
2023/01/31 15:09:39;;;;;;;;;;;;;;;;;;5069624;28;19961;-80
2023/01/31 15:12:05;;;;;;;;;;;;;;;;;;5064185;28;19962;-80
2023/01/31 15:14:30;;;;;;;;;;;;;;;;;;5074071;28;19959;-79
2023/01/31 15:16:56;;;;;;;;;;;;;;;;;;5092892;28;20666;-80
2023/01/31 15:19:23;;;;;;;;;;;;;;;;;;5074800;28;20299;-80
2023/01/31 15:21:51;;;;;;;;;;;;;;;;;;5065498;28;19940;-80
2023/01/31 15:24:17;;;;;;;;;;;;;;;;;;5073332;28;19912;-79
2023/01/31 15:26:42;;;;;;;;;;;;;;;;;;5083736;28;19943;-79
2023/01/31 15:29:07;;;;;;;;;;;;;;;;;;5087487;28;19915;-79
2023/01/31 15:31:34;;;;;;;;;;;;;;;;;;5066746;28;22001;-79
2023/01/31 15:33:59;;;;;;;;;;;;;;;;;;5075131;28;19919;-80
2023/01/31 15:36:24;;;;;;;;;;;;;;;;;;5069131;28;19952;-80
2023/01/31 15:38:49;;;;;;;;;;;;;;;;;;5086436;28;19911;-79
2023/01/31 15:41:15;;;;;;;;;;;;;;;;;;5071384;28;19992;-80
2023/01/31 15:43:40;;;;;;;;;;;;;;;;;;5086833;28;19958;-80
2023/01/31 15:46:05;;;;;;;;;;;;;;;;;;5070935;28;19970;-79
2023/01/31 15:48:30;;;;;;;;;;;;;;;;;;5082760;28;20427;-81
2023/01/31 15:50:55;;;;;;;;;;;;;;;;;;5069922;28;19916;-80
2023/01/31 15:53:20;;;;;;;;;;;;;;;;;;5079875;28;19912;-81
2023/01/31 15:55:45;;;;;;;;;;;;;;;;;;5074375;28;20343;-80
2023/01/31 15:58:11;;;;;;;;;;;;;;;;;;5087036;28;20364;-81
2023/01/31 16:00:36;;;;;;;;;;;;;;;;;;5070814;28;19969;-81
2023/01/31 16:03:01;;;;;;;;;;;;;;;;;;5071015;28;19921;-81
2023/01/31 16:05:26;;;;;;;;;;;;;;;;;;5088789;28;19999;-81
2023/01/31 16:07:51;;;;;;;;;;;;;;;;;;5059212;28;19959;-81
2023/01/31 16:10:17;;;;;;;;;;;;;;;;;;5071133;28;19919;-80
2023/01/31 16:12:42;;;;;;;;;;;;;;;;;;5086632;28;19923;-80
2023/01/31 16:15:07;;;;;;;;;;;;;;;;;;5092601;28;19923;-81
2023/01/31 16:17:32;;;;;;;;;;;;;;;;;;5088234;28;19958;-79
2023/01/31 16:19:57;;;;;;;;;;;;;;;;;;5088812;28;19916;-79
2023/01/31 16:22:22;;;;;;;;;;;;;;;;;;5090665;28;19934;-80
2023/01/31 16:24:47;;;;;;;;;;;;;;;;;;5072217;28;19930;-80
2023/01/31 16:27:13;;;;;;;;;;;;;;;;;;5072956;28;19923;-80
2023/01/31 16:29:38;;;;;;;;;;;;;;;;;;5063705;28;19919;-80
2023/01/31 16:32:03;;;;;;;;;;;;;;;;;;5088658;28;19961;-79
2023/01/31 16:34:28;;;;;;;;;;;;;;;;;;5072444;28;20419;-80
2023/01/31 16:36:54;;;;;;;;;;;;;;;;;;5063884;28;20277;-79
2023/01/31 16:39:19;;;;;;;;;;;;;;;;;;5062774;28;19917;-79
2023/01/31 16:41:44;;;;;;;;;;;;;;;;;;5082535;28;20418;-78